Ashintilly, Georgia
Current Conditions -  °F | °C
As of 9:58 AM on Sunday 23 Nov 2014 (Local Time) from KLHW Reporting Station
Light Rain Light Rain  
Wind Chill: 65°   Ceiling: 500
Heat Index: 65°   Visibility: 4mi
Dew Point: 64°   Wind: 5mph
Humidity: 95%   Direction: 90°E
Pressure: 30.03"   Gusts: NA
Location:  31.5632°N, 81.4638°W
Report Text: KLHW 231458Z AUTO 09004KT 4SM -RA BR OVC005 18/18 A3003 RMK AO2 SLP172 P0023 60035 T01830175 50003
Loading
Personal Weather Stations






























Interactive Weather Map New forecast layout! Learn more

10-Day Weather Forecast

Advertisements
Track Severe Weather on mobile